22 de mayo de 2022

Hora Código Tiempo Temp. Visibilidad Nubes Viento METAR/SPECI
19:00
V
27 °C 10 km+ - 270°   270° 7 kt METAR DGAA 221900Z 27007KT CAVOK 27/22 Q1013 NOSIG
18:00
V
28 °C 10 km+ - 220°   220° 10 kt METAR DGAA 221800Z 22010KT 9999 FEW030CB 28/23 Q1012 NOSIG
17:00
V
27 °C 10 km+ - 180°   180° 10 kt METAR DGAA 221700Z 18010KT 9999 FEW016 27/23 Q1012 NOSIG
16:00
V
28 °C 10 km+ - 190°   190° 8 kt METAR DGAA 221600Z 19008KT 9999 FEW016 28/24 Q1012 NOSIG
15:00
V
28 °C 10 km+ - 180°   180° 6 kt METAR DGAA 221500Z 18006KT 9999 FEW016 28/24 Q1012 NOSIG
14:00
V
28 °C 10 km+ - 230°   230° 5 kt METAR DGAA 221400Z 23005KT 180V270 9999 SCT019 28/23 Q1013 NOSIG
13:00
V
28 °C 10 km+ - 250°   250° 5 kt METAR DGAA 221300Z 25005KT 210V310 9999 FEW016 28/22 Q1013 NOSIG
12:00
V
28 °C 10 km+ - 280°   280° 8 kt METAR DGAA 221200Z 28008KT 260V320 9999 28/23 Q1013 NOSIG
11:00
V
26 °C 10 km+ - 290°   290° 6 kt METAR DGAA 221100Z 29006KT 240V320 9999 FEW012 26/23 Q1014 NOSIG
10:00
V
25 °C 10 km+ - 270°   270° 7 kt METAR DGAA 221000Z 27007KT 250V310 9999 FEW010 25/23 Q1014 NOSIG
09:00
V
24 °C 10 km+ - 280°   280° 6 kt METAR DGAA 220900Z 28006KT 9999 FEW010 24/23 Q1014 NOSIG
08:00
V
24 °C 10 km+ - 280°   280° 7 kt METAR DGAA 220800Z 28007KT CAVOK 24/23 Q1015 NOSIG
07:00
V
24 °C 8 km - 230°   230° 5 kt METAR DGAA 220700Z 23005KT 200V260 8000 SCT009 24/23 Q1013 NOSIG
06:00
I
24 °C 8 km 900 ft 260°   260° 10 kt METAR DGAA 220600Z 26010KT 8000 RA BKN009 24/23 Q1013 NOSIG
05:00
I
24 °C 8 km 900 ft 240°   240° 9 kt METAR DGAA 220500Z 24009KT 8000 RA BKN009 24/23 Q1014 NOSIG
02:00
V
23 °C 8 km - Var   Var 2 kt METAR DGAA 220200Z VRB02KT 8000 RA FEW008 23/23 Q1015 NOSIG
01:00
V
23 °C 8 km - 280°   280° 4 kt METAR DGAA 220100Z 28004KT 8000 RA FEW008 23/22 Q1015 NOSIG
00:00
I
23 °C 8 km 800 ft 350°   350° 3 kt METAR DGAA 220000Z 35003KT 290V070 8000 RA BKN008 FEW030CB 23/22 Q1016 NOSIG

21 de mayo de 2022

Hora Código Tiempo Temp. Visibilidad Nubes Viento METAR/SPECI
23:00
I
22 °C 3 km 800 ft 030°   030° 6 kt METAR DGAA 212300Z 03006KT 3000 TSRA BKN008 FEW030CB 22/22 Q1016 NOSIG
22:00
I
22 °C 3 km 900 ft 040°   040° 9 kt METAR DGAA 212200Z 04009KT 3000 TSRA BKN009 FEW030CB 22/22 Q1016 NOSIG
21:00
I
22 °C 3 km 900 ft 050°   050° 11 kt METAR DGAA 212100Z 05011KT 3000 TSRA BKN009 FEW030CB 22/22 Q1017 NOSIG
20:00
I
24 °C 1,5 km 900 ft 360°   360° 12 kt METAR DGAA 212000Z 36012KT 1500 TSRA BKN009 FEW030CB 24/24 Q1015 NOSIG
19:00
M
26 °C 10 km+ 1.000 ft 350°   350° 7 kt METAR DGAA 211900Z 35007KT 9999 TS BKN010 FEW030CB 26/24 Q1013 NOSIG
18:00
M
28 °C 10 km+ 1.000 ft 210°   210° 12 kt METAR DGAA 211800Z 21012KT 200V260 9999 TS BKN010 FEW030CB 28/24 Q1012 NOSIG
17:00
V
28 °C 10 km+ - 200°   200° 15 kt METAR DGAA 211700Z 20015KT 9999 FEW030CB 28/25 Q1012 NOSIG
16:00
V
29 °C 10 km+ - 200°   200° 16 kt METAR DGAA 211600Z 20016KT 9999 FEW030CB 29/24 Q1011 NOSIG
15:00
V
30 °C 10 km+ - 200°   200° 15 kt METAR DGAA 211500Z 20015KT 9999 FEW030CB 30/24 Q1011 NOSIG
14:00
V
30 °C 10 km+ 3.200 ft 210°   210° 16 kt METAR DGAA 211400Z 21016KT 190V250 9999 BKN032 30/25 Q1011 NOSIG
13:00
M
30 °C 10 km+ 2.400 ft 180°   180° 10 kt METAR DGAA 211300Z 18010KT 9999 BKN024 30/23 Q1012 NOSIG
12:00
V
31 °C 10 km+ - 240°   240° 12 kt METAR DGAA 211200Z 24012KT 9999 FEW032 31/23 Q1014 NOSIG
11:00
V
31 °C 10 km+ - 260°   260° 9 kt METAR DGAA 211100Z 26009KT 160V330 9999 FEW028 31/24 Q1014 NOSIG
10:00
V
30 °C 10 km+ - 270°   270° 12 kt METAR DGAA 211000Z 27012KT 9999 FEW024 30/24 Q1014 NOSIG
09:00
V
29 °C 10 km+ - 270°   270° 11 kt METAR DGAA 210900Z 27011KT 9999 FEW020 29/23 Q1014 NOSIG
08:00
V
27 °C 10 km+ - 270°   270° 11 kt METAR DGAA 210800Z 27011KT 9999 FEW030CB 27/23 Q1013 NOSIG
07:00
V
26 °C 10 km+ - 280°   280° 9 kt METAR DGAA 210700Z 28009KT 9999 FEW030CB 26/23 Q1013 NOSIG
06:00
V
26 °C 10 km+ - 290°   290° 8 kt METAR DGAA 210600Z 29008KT 9999 TS FEW030CB 26/24 Q1012 NOSIG
05:00
V
25 °C 10 km+ - 290°   290° 7 kt METAR DGAA 210500Z 29007KT 9999 VCTS FEW030CB 25/24 Q1012 NOSIG
04:00
V
25 °C 10 km+ - 280°   280° 8 kt METAR DGAA 210400Z 28008KT CAVOK 25/24 Q1012 NOSIG
02:00
V
26 °C 10 km+ - 250°   250° 8 kt METAR DGAA 210200Z 25008KT 9999 SCT011 26/24 Q1011 NOSIG
01:00
V
27 °C 10 km+ - 270°   270° 8 kt METAR DGAA 210100Z 27008KT 230V290 9999 SCT011 27/25 Q1012 NOSIG
00:00
V
27 °C 10 km+ - 250°   250° 8 kt METAR DGAA 210000Z 25008KT 9999 FEW012 27/24 Q1013 NOSIG

20 de mayo de 2022

Hora Código Tiempo Temp. Visibilidad Nubes Viento METAR/SPECI
23:00
V
28 °C 10 km+ - 220°   220° 9 kt METAR DGAA 202300Z 22009KT 9999 SCT012 28/24 Q1014 NOSIG
22:00
V
28 °C 10 km+ - 230°   230° 9 kt METAR DGAA 202200Z 23009KT 9999 FEW012 28/24 Q1014 NOSIG
21:00
V
27 °C 10 km+ - 180°   180° 6 kt METAR DGAA 202100Z 18006KT 9999 FEW012 27/24 Q1013 NOSIG
20:00
V
27 °C 10 km+ - 180°   180° 9 kt METAR DGAA 202000Z 18009KT CAVOK 27/24 Q1012 NOSIG
19:00
L
27 °C 0 m - 160°   160° 11 kt METAR DGAA 201900Z 16011KT SCT017 27/24 Q1012 NOSIG
18:00
L
29 °C 0 m - 180°   180° 11 kt METAR DGAA 201800Z 18011KT SCT017 29/24 Q1011 NOSIG
17:00
L
29 °C 0 m - 180°   180° 12 kt METAR DGAA 201700Z 18012KT FEW017 29/25 Q1011 NOSIG
16:00
L
30 °C 0 m - 170°   170° 10 kt METAR DGAA 201600Z 17010KT FEW017 30/24 Q1010 NOSIG
15:00
L
30 °C 0 m - 170°   170° 10 kt METAR DGAA 201500Z 17010KT FEW015 30/24 Q1011 NOSIG
Datos más antiguos

Descarga nuestra aplicación

Acceso fácil a todo el tiempo de la aviación en tu teléfono móvil y tableta.
Con muchas funciones no disponibles en el sitio web, como la compatibilidad sin conexión y una lista personal de aeropuertos.

Nosotros y terceros seguimos tu comportamiento en Internet en nuestro sitio web con cookies. Si continúas, asumimos que estás de acuerdo con nuestra política de cookies. Más información